Anza Borrego Desert State Park, California Weather observations

Data are for 10 minute period ending at time listed.
 Day   Time   Solar   Ave.   Ave.  Ave.  Vector  Max.   Baro.   Total    
  of    of     Rad.   Air    Rel.  Wind   Wind   Wind  Press.  Precip.   
Year   Day            Temp.  Hum.  Speed  Dir.   Gust                    
2020   (PST)  Kw/m2    F      %     mph   deg.    mph    mb.     in.     
-------------------------------------------------------------------------
 152   12:20   0.91   96.0     8    3.7   104     9.8   979.8    0.00 
 152   12:30   0.90   97.4     8    2.8   344     7.0   979.7    0.00 
 152   12:40   0.92   97.7     8    5.6    60     9.6   979.5    0.00 
 152   12:50   0.92   97.5     8    4.3    78    13.3   979.4    0.00 
 152   13:00   0.89   98.7     8    4.9   118     9.1   979.3    0.00 
 152   13:10   0.91   98.8     8    4.0   302     9.4   979.1    0.00 
 152   13:20   0.86   98.5     8    3.4    11     7.7   979.0    0.00 
 152   13:30   0.64   99.2     8    3.0    61     6.3   978.9    0.00 
 152   13:40   0.72   99.6     8    2.9    68     7.2   978.9    0.00 
 152   13:50   0.68   99.6     8    4.6    93    10.2   978.7    0.00 
 152   14:00   0.63   99.2     8   11.2   149    16.0   978.6    0.00 
 152   14:10   0.65  100.0    11    8.4   195    17.4   978.5    0.00 
 152   14:20   0.69   99.8    11   12.0   213    18.6   978.3    0.00 
 152   14:30   0.59   99.4     9   12.3   216    18.6   978.2    0.00 
 152   14:40   0.51   98.7    10   11.6   206    17.0   978.1    0.00 
 152   14:50   0.46   98.7    10    9.4   208    17.1   977.9    0.00 
 152   15:00   0.43   98.4     9    3.8   312     7.3   977.9    0.00 
 152   15:10   0.41   99.6     9    6.6   314    13.5   977.8    0.00 
 152   15:20   0.45   99.1     9    7.9   311    13.6   977.8    0.00 
 152   15:30   0.37   98.6     9    6.5     1    15.6   977.8    0.00 
 152   15:40   0.47   99.0     8    9.8    26    15.8   977.8    0.00 
 152   15:50   0.49   98.8     9   11.1    23    17.1   977.8    0.00 
 152   16:00   0.57   99.7     9    7.3    44    11.8   977.8    0.00 
 152   16:10   0.52  100.9     8    6.1    29    11.2   977.7    0.00 
 152   16:20   0.40   99.4     9    7.4    27    13.7   977.7    0.00 
 152   16:30   0.44   99.4     9    4.6    61    10.4   977.7    0.00 
 152   16:40   0.46  100.2    10    4.3     3    11.0   977.7    0.00 
 152   16:50   0.42  101.0    10    7.0   242    16.7   977.7    0.00 
 152   17:00   0.35   98.9    10    9.8   252    17.7   977.7    0.00 
 152   17:10   0.32   97.4    11   12.3   246    17.4   977.7    0.00 
 152   17:20   0.27   96.4    14   10.9   240    17.0   977.7    0.00 
 152   17:30   0.24   96.9    14    4.1   268    10.1   977.8    0.00 
 152   17:40   0.11   95.7    15    3.5   337    11.6   977.8    0.00 
 152   17:50   0.05   92.7    17    8.8   331    13.7   977.8    0.00 
 152   18:00   0.04   91.6    18   10.5   330    15.6   977.8    0.00 
 152   18:10   0.03   91.1    18   10.2   329    20.9   977.9    0.00 
 152   18:20   0.03   90.7    18   10.7   322    19.7   978.1    0.00 
 152   18:30   0.02   90.0    19   13.8   317    21.0   978.1    0.00 
 152   18:40   0.01   89.2    21   12.5   313    23.3   978.2    0.00 
 152   18:50   0.01   88.8    22   13.6   318    23.9   978.3    0.00 
 152   19:00   0.00   88.3    22   10.3   308    22.9   978.6    0.00 
 152   19:10   0.00   88.0    22   14.6   314    24.6   978.6    0.00 
 152   19:20   0.00   88.0    20   11.1   308    19.0   978.7    0.00 
 152   19:30   0.00   88.3    19   10.0   318    20.9   978.7    0.00 
 152   19:40   0.00   88.1    19    9.7   319    16.9   978.9    0.00 
 152   19:50   0.00   88.2    18    7.3   314    14.4   979.0    0.00 
 152   20:00   0.00   87.8    19    9.6   300    14.1   979.1    0.00 
 152   20:10   0.00   87.1    20    7.1   306    13.5   979.3    0.00 
 152   20:20   0.00   86.9    19    7.7   303    13.7   979.3    0.00 
 152   20:30   0.00   85.5    20    3.0     6     6.4   979.5    0.00 
 152   20:40   0.00   84.7    22    3.0    51     6.4   979.7    0.00 
 152   20:50   0.00   85.2    21    3.0    35     6.0   979.8    0.00 
 152   21:00   0.00   82.1    23    2.8   308     5.5   979.9    0.00 
 152   21:10   0.00   83.7    23    3.8    64     5.6   980.0    0.00 
 152   21:20   0.00   83.6    24    4.3    74     7.0   980.0    0.00 
 152   21:30   0.00   82.9    24    4.4    89     8.2   980.2    0.00 
 152   21:40   0.00   83.3    24    3.1   110     8.0   980.3    0.00 
 152   21:50   0.00   80.5    26    3.6   207     5.3   980.3    0.00 
 152   22:00   0.00   79.4    27    2.9   214     5.8   980.3    0.00 
 152   22:10   0.00   81.0    26    3.0   165     6.3   980.3    0.00 
 152   22:20   0.00   79.6    27    4.6   221     6.1   980.5    0.00 
 152   22:30   0.00   77.6    28    4.7   207     6.1   980.5    0.00 
 152   22:40   0.00   76.2    29    4.8   222     6.4   980.3    0.00 
 152   22:50   0.00   75.5    29    3.6   221     5.5   980.3    0.00 
 152   23:00   0.00   74.6    30    4.2   230     6.7   980.3    0.00 
 152   23:10   0.00   74.2    29    5.4   263     6.9   980.3    0.00 
 152   23:20   0.00   74.8    30    4.4   334     6.0   980.3    0.00 
 152   23:30   0.00   74.9    30    2.2   358     4.2   980.3    0.00 
 152   23:40   0.00   73.3    32    1.5   319     3.1   980.2    0.00 
 152   23:50   0.00   73.5    31    2.3   220     4.2   980.3    0.00 
 153    0:00   0.00   71.6    33    2.9   264     4.6   980.5    0.00 
 153    0:10   0.00   70.1    34    3.5   248     4.7   980.5    0.00 
 153    0:20   0.00   70.4    34    4.4   249     5.8   980.3    0.00 
 153    0:30   0.00   70.3    31    4.7   256     6.1   980.3    0.00 
 153    0:40   0.00   70.2    30    3.8   260     4.8   980.3    0.00 
 153    0:50   0.00   69.9    30    3.1   250     4.6   980.2    0.00 
 153    1:00   0.00   69.0    30    2.8   264     4.5   980.2    0.00 
 153    1:10   0.00   69.5    29    2.0   313     3.3   980.0    0.00 
 153    1:20   0.00   70.0    30    1.2   279     2.4   980.0    0.00 
 153    1:30   0.00   69.6    28    1.7   200     2.9   980.0    0.00 
 153    1:40   0.00   67.7    29    3.2   256     4.4   979.9    0.00 
 153    1:50   0.00   68.3    27    2.5   246     4.8   979.9    0.00 
 153    2:00   0.00   68.9    26    3.0   217     4.7   979.9    0.00 
 153    2:10   0.00   70.3    25    3.4   245     5.4   979.9    0.00 
 153    2:20   0.00   71.5    24    2.1   248     5.3   979.9    0.00 
 153    2:30   0.00   70.1    26    2.4   225     2.8   979.9    0.00 
 153    2:40   0.00   68.8    27    2.9   231     4.2   979.8    0.00 
 153    2:50   0.00   68.8    28    2.2   247     4.2   979.8    0.00 
 153    3:00   0.00   69.1    26    2.7   230     4.6   979.7    0.00 
 153    3:10   0.00   68.5    27    2.6   206     4.3   979.7    0.00 
 153    3:20   0.00   70.2    24    3.2   222     4.2   979.7    0.00 
 153    3:30   0.00   69.9    24    2.7   226     3.9   979.8    0.00 
 153    3:40   0.00   69.6    26    4.6   241     5.8   979.9    0.00 
 153    3:50   0.00   69.7    25    3.9   247     5.3   979.9    0.00 
 153    4:00   0.00   68.9    25    3.4   201     5.6   980.0    0.00 
 153    4:10   0.00   68.4    24    2.7   187     3.9   980.0    0.00 
 153    4:20   0.00   68.5    28    3.3   212     4.8   980.2    0.00 
 153    4:30   0.00   68.2    26    3.1   240     4.4   980.2    0.00 
 153    4:40   0.01   68.1    26    3.0   215     4.2   980.3    0.00 
 153    4:50   0.01   68.7    26    4.1   236     5.9   980.5    0.00 
 153    5:00   0.03   70.0    26    4.7   250     6.0   980.6    0.00 
 153    5:10   0.06   71.9    26    3.1   226     4.8   980.8    0.00 
 153    5:20   0.09   72.9    26    3.2   258     5.2   981.0    0.00 
 153    5:30   0.12   76.2    24    2.1   272     3.8   981.1    0.00 
 153    5:40   0.14   79.1    23    1.5   212     2.6   981.4    0.00 
 153    5:50   0.14   80.3    22    2.2   232     3.6   981.6    0.00 
 153    6:00   0.16   81.1    22    2.8   260     4.8   981.9    0.00 
 153    6:10   0.18   82.0    20    3.1   238     4.5   981.9    0.00 
 153    6:20   0.22   83.8    18    3.5   188     5.0   982.0    0.00 
 153    6:30   0.24   84.7    17    3.0   185     3.9   982.0    0.00 
 153    6:40   0.30   85.9    16    2.4   234     4.1   982.0    0.00 
 153    6:50   0.30   86.2    16    1.4   219     3.0   981.9    0.00 
 153    7:00   0.40   88.4    15    1.7    29     2.8   982.0    0.00 
 153    7:10   0.45   88.6    14    3.0    74     5.4   982.2    0.00 
 153    7:20   0.41   88.1    13    3.1    87     6.5   982.3    0.00 
 153    7:30   0.42   87.3    13    3.0    58     4.3   982.4    0.00 
 153    7:40   0.43   88.3    13    2.3   115     5.6   982.6    0.00 
 153    7:50   0.45   89.2    12    2.0   110     3.5   982.6    0.00 
 153    8:00   0.41   89.0    12    1.8   121     4.2   982.6    0.00 
 153    8:10   0.42   89.0    12    1.7    75     3.7   982.6    0.00 
 153    8:20   0.61   90.0    12    3.0    56     5.3   982.6    0.00 
 153    8:30   0.61   90.6    12    2.7    85     5.3   982.6    0.00 
 153    8:40   0.61   91.1    12    2.7    51     5.3   982.6    0.00 
 153    8:50   0.54   91.0    11    3.7    83     5.8   982.6    0.00 
 153    9:00   0.71   91.2    11    3.5    98     7.2   982.4    0.00 
 153    9:10   0.39   90.7    11    4.1    87     6.1   982.4    0.00 
 153    9:20   0.58   91.3    10    3.4    88     6.7   982.6    0.00 
 153    9:30   0.90   92.9    10    4.0    90     8.4   982.6    0.00 
 153    9:40   0.67   93.5    10    4.4    98     9.7   982.4    0.00 
 153    9:50   0.52   92.0    11    6.6   119     9.4   982.6    0.00 
 153   10:00   0.61   92.6    10    3.3    89     7.8   982.6    0.00 
 153   10:10   0.86   93.3    10    5.9   131    11.0   982.6    0.00 
 153   10:20   0.85   94.2     9    3.9    86     7.7   982.4    0.00 
 153   10:30   0.93   94.7     9    4.8   102     8.0   982.3    0.00 
 153   10:40   0.98   95.5     9    5.9    63     9.8   982.3    0.00 
 153   10:50   0.97   95.9     8    4.4   103     9.7   982.2    0.00 
 153   11:00   1.01   96.4     8    5.8   102    11.7   982.0    0.00 
 153   11:10   0.92   97.0     8    3.5   124     9.2   982.0    0.00 
 153   11:20   0.91   97.4     8    3.6    96     8.3   981.9    0.00 
 153   11:30   0.68   97.2     7    5.6    95    11.0   981.9    0.00 
 153   11:40   0.57   96.4     7    4.7    14     9.3   981.6    0.00 
 153   11:50   0.69   97.4     7    4.8    29     9.9   981.6    0.00 
 153   12:00   0.73   97.0     8    4.6    97     8.5   981.5    0.00 
 153   12:10   0.64   97.7     8    5.2    99     9.8   981.4    0.00 

Return to Anza Borrego Desert State Park graphs page.


Western Regional Climate Center,wrcc@dri.edu